createdAt,value
2022-08-26T00:01:44.030Z,17.48
2022-08-26T00:05:47.226Z,18.67
2022-08-26T00:09:50.016Z,14.18
2022-08-26T00:13:51.932Z,18.90
2022-08-26T00:17:55.021Z,16.25
2022-08-26T00:21:56.800Z,17.05
2022-08-26T00:25:58.649Z,16.25
2022-08-26T00:30:01.672Z,16.02
2022-08-26T00:34:03.407Z,17.25
2022-08-26T00:38:05.853Z,17.85
2022-08-26T00:42:09.394Z,12.63
2022-08-26T00:46:34.803Z,18.08
2022-08-26T00:50:42.465Z,15.75
2022-08-26T00:54:51.454Z,15.80
2022-08-26T00:58:56.730Z,19.35
2022-08-26T01:03:02.082Z,14.52
2022-08-26T01:07:07.256Z,20.38
2022-08-26T01:11:09.878Z,16.73
2022-08-26T01:15:18.904Z,18.10
2022-08-26T01:19:33.790Z,17.80
2022-08-26T01:23:39.332Z,15.40
2022-08-26T01:27:41.128Z,16.48
2022-08-26T01:31:51.204Z,20.50
2022-08-26T01:35:53.528Z,17.40
2022-08-26T01:39:56.676Z,19.55
2022-08-26T01:44:01.149Z,14.63
2022-08-26T01:48:11.558Z,17.90
2022-08-26T01:52:18.815Z,19.55
2022-08-26T01:56:24.620Z,16.10
2022-08-26T02:00:36.202Z,16.52
2022-08-26T02:04:47.901Z,19.80
2022-08-26T02:08:54.985Z,19.25
2022-08-26T02:12:56.853Z,18.40
2022-08-26T02:16:59.360Z,18.52
2022-08-26T02:21:01.687Z,13.90
2022-08-26T02:25:15.452Z,21.48
2022-08-26T02:29:23.629Z,20.40
2022-08-26T02:33:27.340Z,16.35
2022-08-26T02:37:31.484Z,14.57
2022-08-26T02:41:33.979Z,16.75
2022-08-26T02:45:36.164Z,17.27
2022-08-26T02:49:37.981Z,15.95
2022-08-26T02:53:39.910Z,17.75
2022-08-26T02:57:41.824Z,19.08
2022-08-26T03:01:45.179Z,17.65
2022-08-26T03:05:47.642Z,16.67
2022-08-26T03:09:49.356Z,20.77
2022-08-26T03:13:55.266Z,17.17
2022-08-26T03:17:57.041Z,21.20
2022-08-26T03:21:59.298Z,15.38
2022-08-26T03:26:01.441Z,15.35
2022-08-26T03:30:23.177Z,16.00
2022-08-26T03:34:25.169Z,19.63
2022-08-26T03:38:27.396Z,15.43
2022-08-26T03:42:29.233Z,17.10
2022-08-26T03:46:35.286Z,13.73
2022-08-26T03:50:37.748Z,16.88
2022-08-26T03:54:40.618Z,17.27
2022-08-26T03:58:45.884Z,20.90
2022-08-26T04:02:51.063Z,15.77
2022-08-26T04:06:59.281Z,15.95
2022-08-26T04:11:01.268Z,18.17
2022-08-26T04:15:06.029Z,15.70
2022-08-26T04:19:09.564Z,18.85
2022-08-26T04:23:11.553Z,18.20
2022-08-26T04:27:13.256Z,19.10
2022-08-26T04:31:16.423Z,18.00
2022-08-26T04:35:20.857Z,17.27
2022-08-26T04:39:28.089Z,14.60
2022-08-26T04:43:31.221Z,18.85
2022-08-26T04:47:33.064Z,21.85
2022-08-26T04:51:36.038Z,15.38
2022-08-26T04:55:39.951Z,21.92
2022-08-26T04:59:45.997Z,17.58
2022-08-26T05:03:49.007Z,13.93
2022-08-26T05:07:50.740Z,17.27
2022-08-26T05:11:52.712Z,16.67
2022-08-26T05:15:55.756Z,24.23
2022-08-26T05:20:04.049Z,15.45
2022-08-26T05:24:06.498Z,18.52
2022-08-26T05:28:09.786Z,17.80
2022-08-26T05:32:11.951Z,18.13
2022-08-26T05:36:16.782Z,18.02
2022-08-26T05:40:18.603Z,18.85
2022-08-26T05:44:22.362Z,22.00
2022-08-26T05:48:24.549Z,27.25
2022-08-26T05:52:26.534Z,28.70
2022-08-26T05:56:28.830Z,20.10
2022-08-26T06:00:30.564Z,17.77
2022-08-26T06:04:32.349Z,26.92
2022-08-26T06:08:37.475Z,22.10
2022-08-26T06:12:39.334Z,20.70
2022-08-26T06:16:44.980Z,25.10
2022-08-26T06:20:54.583Z,28.30
2022-08-26T06:25:18.331Z,23.52
2022-08-26T06:29:24.871Z,24.15
2022-08-26T06:33:28.815Z,25.25
2022-08-26T06:37:30.881Z,29.35
2022-08-26T06:41:35.008Z,18.90
2022-08-26T06:45:39.615Z,18.30
2022-08-26T06:49:42.350Z,22.02
2022-08-26T06:53:48.250Z,16.55
2022-08-26T06:57:50.785Z,24.13
2022-08-26T07:01:53.472Z,19.88
2022-08-26T07:06:01.884Z,25.48
2022-08-26T07:10:08.467Z,27.35
2022-08-26T07:14:10.517Z,31.02
2022-08-26T07:18:12.232Z,28.05
2022-08-26T07:22:14.294Z,20.92
2022-08-26T07:26:22.656Z,22.70
2022-08-26T07:30:26.740Z,25.60
2022-08-26T07:34:28.599Z,25.30
2022-08-26T07:38:30.338Z,23.17
2022-08-26T07:42:35.661Z,32.83
2022-08-26T07:46:37.353Z,27.90
2022-08-26T07:50:48.955Z,30.35
2022-08-26T07:54:52.174Z,24.98
2022-08-26T07:58:54.334Z,25.23
2022-08-26T08:02:56.099Z,23.80
2022-08-26T08:06:58.884Z,22.50
2022-08-26T08:11:02.259Z,34.47
2022-08-26T08:15:04.445Z,29.35
2022-08-26T08:19:06.532Z,29.58
2022-08-26T08:23:08.325Z,31.88
2022-08-26T08:27:10.689Z,33.35
2022-08-26T08:31:38.692Z,25.67
2022-08-26T08:35:43.626Z,25.77
2022-08-26T08:39:45.430Z,24.98
2022-08-26T08:43:47.864Z,30.95
2022-08-26T08:47:56.559Z,21.90
2022-08-26T08:52:18.336Z,20.67
2022-08-26T08:56:36.803Z,27.30
2022-08-26T09:00:57.863Z,16.23
2022-08-26T09:05:07.844Z,20.08
2022-08-26T09:09:16.374Z,16.92
2022-08-26T09:13:25.124Z,13.02
2022-08-26T09:17:59.927Z,14.20
2022-08-26T09:22:08.804Z,18.90
2022-08-26T09:26:45.843Z,16.63
2022-08-26T09:31:01.799Z,17.17
2022-08-26T09:35:27.600Z,12.27
2022-08-26T09:39:38.511Z,13.93
2022-08-26T09:43:40.670Z,14.20
2022-08-26T09:47:46.066Z,13.57
2022-08-26T09:51:50.138Z,15.75
2022-08-26T09:56:12.859Z,18.02
2022-08-26T10:00:32.800Z,18.08
2022-08-26T10:04:35.482Z,16.65
2022-08-26T10:08:47.513Z,15.57
2022-08-26T10:12:57.720Z,13.82
2022-08-26T10:17:05.546Z,20.13
2022-08-26T10:21:23.059Z,17.10
2022-08-26T10:25:31.317Z,22.38
2022-08-26T10:29:48.437Z,14.27
2022-08-26T10:33:51.225Z,15.48
2022-08-26T10:38:03.474Z,15.75
2022-08-26T10:42:16.847Z,20.95
2022-08-26T10:46:27.289Z,14.63
2022-08-26T10:50:42.768Z,19.02
2022-08-26T10:55:05.564Z,18.10
2022-08-26T10:59:15.597Z,17.85
2022-08-26T11:03:31.443Z,23.75
2022-08-26T11:07:52.589Z,15.88
2022-08-26T11:11:57.189Z,15.63
2022-08-26T11:15:59.462Z,16.70
2022-08-26T11:20:09.211Z,14.60
2022-08-26T11:24:52.997Z,15.10
2022-08-26T11:28:55.350Z,17.02
2022-08-26T11:32:58.824Z,13.35
2022-08-26T11:37:03.393Z,19.65
2022-08-26T11:41:11.929Z,13.57
2022-08-26T11:45:37.532Z,14.52
2022-08-26T11:49:39.654Z,16.42
2022-08-26T11:53:47.469Z,14.27
2022-08-26T11:57:52.942Z,12.63
2022-08-26T12:01:56.055Z,12.93
2022-08-26T12:05:58.034Z,11.85
2022-08-26T12:10:03.471Z,14.02
2022-08-26T12:14:27.875Z,14.27
2022-08-26T12:18:38.439Z,16.98
2022-08-26T12:22:43.793Z,15.52
2022-08-26T12:26:51.253Z,14.68
2022-08-26T12:31:04.745Z,15.07
2022-08-26T12:35:12.625Z,16.38
2022-08-26T12:39:24.802Z,19.20
2022-08-26T12:43:42.137Z,17.58
2022-08-26T12:47:45.627Z,13.68
2022-08-26T12:51:50.216Z,14.95
2022-08-26T12:55:57.242Z,18.13
2022-08-26T13:00:30.059Z,16.05
2022-08-26T13:04:41.798Z,19.17
2022-08-26T13:08:46.538Z,12.75
2022-08-26T13:12:48.246Z,3.78
2022-08-26T13:16:50.465Z,3.67
2022-08-26T13:20:52.616Z,10.50
2022-08-26T13:24:56.498Z,10.88
2022-08-26T13:29:01.214Z,15.25
2022-08-26T13:33:04.104Z,14.48
2022-08-26T13:37:06.406Z,15.65
2022-08-26T13:41:08.157Z,12.65
2022-08-26T13:45:12.047Z,15.57
2022-08-26T13:49:14.203Z,18.17
2022-08-26T13:53:17.594Z,14.20
2022-08-26T13:57:19.395Z,21.05
2022-08-26T14:01:21.597Z,11.95
2022-08-26T14:05:23.300Z,16.52
2022-08-26T14:09:25.084Z,17.33
2022-08-26T14:13:26.828Z,20.85
2022-08-26T14:17:28.644Z,23.63
2022-08-26T14:21:35.225Z,23.20
2022-08-26T14:25:36.958Z,21.95
2022-08-26T14:29:38.998Z,21.95
2022-08-26T14:33:41.431Z,27.02
2022-08-26T14:37:43.275Z,21.23
2022-08-26T14:41:55.178Z,25.73
2022-08-26T14:45:57.024Z,23.23
2022-08-26T14:49:58.862Z,22.52
2022-08-26T14:54:12.471Z,20.58
2022-08-26T14:58:14.209Z,19.20
2022-08-26T15:02:32.893Z,16.48
2022-08-26T15:06:35.989Z,25.67
2022-08-26T15:10:38.148Z,22.45
2022-08-26T15:14:40.029Z,18.77
2022-08-26T15:18:41.977Z,19.13
2022-08-26T15:22:44.412Z,21.48
2022-08-26T15:26:46.714Z,23.48
2022-08-26T15:30:48.641Z,23.85
2022-08-26T15:34:52.986Z,23.35
2022-08-26T15:38:55.104Z,21.52
2022-08-26T15:43:11.376Z,22.48
2022-08-26T15:47:20.242Z,23.08
2022-08-26T15:51:27.968Z,27.00
2022-08-26T15:55:29.745Z,21.25
2022-08-26T15:59:31.608Z,18.85
2022-08-26T16:03:33.346Z,22.80
2022-08-26T16:07:35.372Z,20.30
2022-08-26T16:11:38.230Z,19.75
2022-08-26T16:15:40.004Z,23.02
2022-08-26T16:19:41.778Z,22.92
2022-08-26T16:23:45.369Z,31.77
2022-08-26T16:27:47.354Z,21.67
2022-08-26T16:31:53.151Z,17.20
2022-08-26T16:35:55.202Z,21.52
2022-08-26T16:39:57.020Z,21.85
2022-08-26T16:43:59.050Z,22.45
2022-08-26T16:48:00.781Z,18.45
2022-08-26T16:52:02.727Z,19.33
2022-08-26T16:56:04.825Z,16.38
2022-08-26T17:00:19.667Z,19.85
2022-08-26T17:04:21.907Z,18.30
2022-08-26T17:08:28.465Z,21.30
2022-08-26T17:12:31.389Z,20.60
2022-08-26T17:16:33.328Z,19.13
2022-08-26T17:20:35.234Z,22.50
2022-08-26T17:24:37.361Z,23.75
2022-08-26T17:28:40.146Z,12.27
2022-08-26T17:32:42.392Z,9.05
2022-08-26T17:36:44.153Z,9.35
2022-08-26T17:40:45.905Z,8.25
2022-08-26T17:44:48.643Z,15.63
2022-08-26T17:48:50.428Z,8.15
2022-08-26T17:52:52.150Z,9.82
2022-08-26T17:56:53.875Z,5.82
2022-08-26T18:00:56.201Z,8.30
2022-08-26T18:04:58.122Z,11.48
2022-08-26T18:09:00.920Z,12.60
2022-08-26T18:13:02.720Z,14.15
2022-08-26T18:17:04.953Z,7.93
2022-08-26T18:21:19.026Z,11.13
2022-08-26T18:25:20.883Z,10.82
2022-08-26T18:29:25.282Z,10.35
2022-08-26T18:33:27.000Z,11.85
2022-08-26T18:37:31.549Z,10.68
2022-08-26T18:41:39.049Z,14.80
2022-08-26T18:45:40.926Z,14.68
2022-08-26T18:49:42.724Z,11.45
2022-08-26T18:53:44.578Z,14.00
2022-08-26T18:57:46.346Z,14.27
2022-08-26T19:01:50.521Z,13.18
2022-08-26T19:05:52.426Z,11.27
2022-08-26T19:09:54.261Z,11.70
2022-08-26T19:13:56.042Z,11.05
2022-08-26T19:17:58.699Z,11.25
2022-08-26T19:22:01.376Z,10.93
2022-08-26T19:26:05.117Z,9.07
2022-08-26T19:30:07.705Z,12.90
2022-08-26T19:34:10.167Z,13.10
2022-08-26T19:38:11.993Z,11.73
2022-08-26T19:42:13.888Z,9.93
2022-08-26T19:46:18.693Z,11.68
2022-08-26T19:50:21.551Z,10.05
2022-08-26T19:54:23.578Z,12.02
2022-08-26T19:58:25.286Z,11.23
2022-08-26T20:02:28.345Z,12.10
2022-08-26T20:06:30.140Z,12.32
2022-08-26T20:10:31.877Z,11.68
2022-08-26T20:14:35.176Z,10.32
2022-08-26T20:18:55.434Z,8.98
2022-08-26T20:22:57.233Z,8.55
2022-08-26T20:26:59.072Z,8.02
2022-08-26T20:31:01.977Z,9.32
2022-08-26T20:35:07.145Z,10.40
2022-08-26T20:39:10.691Z,5.35
2022-08-26T20:43:12.482Z,4.85
2022-08-26T20:47:14.222Z,7.18
2022-08-26T20:51:17.719Z,6.15
2022-08-26T20:55:20.321Z,6.00
2022-08-26T20:59:22.133Z,4.10
2022-08-26T21:03:24.237Z,4.47
2022-08-26T21:07:26.331Z,5.78
2022-08-26T21:11:29.123Z,7.25
2022-08-26T21:15:31.818Z,6.18
2022-08-26T21:19:33.609Z,6.40
2022-08-26T21:23:36.382Z,5.63
2022-08-26T21:27:38.682Z,5.45
2022-08-26T21:31:45.705Z,6.82
2022-08-26T21:35:55.455Z,6.40
2022-08-26T21:39:58.892Z,7.85
2022-08-26T21:44:00.626Z,7.05
2022-08-26T21:48:02.626Z,8.68
2022-08-26T21:52:04.668Z,6.82
2022-08-26T21:56:09.598Z,7.18
2022-08-26T22:00:14.828Z,6.80
2022-08-26T22:04:17.184Z,6.68
2022-08-26T22:08:20.582Z,7.55
2022-08-26T22:12:22.382Z,7.00
2022-08-26T22:16:26.853Z,8.00
2022-08-26T22:20:29.005Z,7.15
2022-08-26T22:24:31.038Z,6.93
2022-08-26T22:28:32.893Z,7.00
2022-08-26T22:32:34.712Z,9.43
2022-08-26T22:36:43.597Z,10.77
2022-08-26T22:40:51.267Z,6.65
2022-08-26T22:44:53.132Z,9.82
2022-08-26T22:48:54.906Z,7.65
2022-08-26T22:52:56.770Z,8.85
2022-08-26T22:56:58.778Z,11.80
2022-08-26T23:01:00.923Z,7.93
2022-08-26T23:05:02.640Z,7.55
2022-08-26T23:09:05.761Z,8.05
2022-08-26T23:13:08.190Z,9.18
2022-08-26T23:17:11.967Z,6.03
2022-08-26T23:21:13.761Z,7.22
2022-08-26T23:25:15.515Z,10.02
2022-08-26T23:29:17.912Z,9.20
2022-08-26T23:33:20.342Z,8.32
2022-08-26T23:37:27.665Z,8.43
2022-08-26T23:41:30.506Z,8.63
2022-08-26T23:45:33.003Z,9.73
2022-08-26T23:49:35.959Z,7.20
2022-08-26T23:53:37.683Z,9.23
2022-08-26T23:57:39.792Z,10.30
